sensor_id;sensor_type;location;lat;lon;timestamp;P1;durP1;ratioP1;P2;durP2;ratioP2
2023;SDS011;1016;48.770;9.154;2023-01-29T00:01:48;21.20;;;6.00;;
2023;SDS011;1016;48.770;9.154;2023-01-29T00:04:14;20.50;;;5.90;;
2023;SDS011;1016;48.770;9.154;2023-01-29T00:06:40;23.87;;;6.13;;
2023;SDS011;1016;48.770;9.154;2023-01-29T00:09:06;21.60;;;6.27;;
2023;SDS011;1016;48.770;9.154;2023-01-29T00:11:31;20.07;;;5.73;;
2023;SDS011;1016;48.770;9.154;2023-01-29T00:13:57;22.57;;;6.60;;
2023;SDS011;1016;48.770;9.154;2023-01-29T00:16:23;21.33;;;5.70;;
2023;SDS011;1016;48.770;9.154;2023-01-29T00:18:48;20.53;;;6.40;;
2023;SDS011;1016;48.770;9.154;2023-01-29T00:21:18;19.20;;;5.47;;
2023;SDS011;1016;48.770;9.154;2023-01-29T00:23:46;21.43;;;5.83;;
2023;SDS011;1016;48.770;9.154;2023-01-29T00:26:12;20.87;;;6.50;;
2023;SDS011;1016;48.770;9.154;2023-01-29T00:28:38;22.30;;;6.30;;
2023;SDS011;1016;48.770;9.154;2023-01-29T00:31:22;20.77;;;6.20;;
2023;SDS011;1016;48.770;9.154;2023-01-29T00:33:49;23.53;;;5.83;;
2023;SDS011;1016;48.770;9.154;2023-01-29T00:36:15;21.30;;;6.00;;
2023;SDS011;1016;48.770;9.154;2023-01-29T00:38:42;20.80;;;6.70;;
2023;SDS011;1016;48.770;9.154;2023-01-29T00:41:12;22.33;;;6.60;;
2023;SDS011;1016;48.770;9.154;2023-01-29T00:43:58;20.60;;;5.57;;
2023;SDS011;1016;48.770;9.154;2023-01-29T00:46:43;20.90;;;6.03;;
2023;SDS011;1016;48.770;9.154;2023-01-29T00:49:10;20.13;;;5.60;;
2023;SDS011;1016;48.770;9.154;2023-01-29T00:51:36;21.20;;;5.90;;
2023;SDS011;1016;48.770;9.154;2023-01-29T00:54:02;20.50;;;5.97;;
2023;SDS011;1016;48.770;9.154;2023-01-29T00:56:31;19.60;;;5.30;;
2023;SDS011;1016;48.770;9.154;2023-01-29T00:58:58;20.20;;;5.90;;
2023;SDS011;1016;48.770;9.154;2023-01-29T01:01:24;20.53;;;5.10;;
2023;SDS011;1016;48.770;9.154;2023-01-29T01:04:09;20.07;;;5.90;;
2023;SDS011;1016;48.770;9.154;2023-01-29T01:06:36;19.73;;;5.27;;
2023;SDS011;1016;48.770;9.154;2023-01-29T01:09:02;20.70;;;6.27;;
2023;SDS011;1016;48.770;9.154;2023-01-29T01:11:47;19.90;;;5.67;;
2023;SDS011;1016;48.770;9.154;2023-01-29T01:14:12;22.67;;;5.90;;
2023;SDS011;1016;48.770;9.154;2023-01-29T01:16:38;19.20;;;5.07;;
2023;SDS011;1016;48.770;9.154;2023-01-29T01:19:03;21.10;;;5.70;;
2023;SDS011;1016;48.770;9.154;2023-01-29T01:21:29;20.60;;;5.40;;
2023;SDS011;1016;48.770;9.154;2023-01-29T01:23:55;20.60;;;5.50;;
2023;SDS011;1016;48.770;9.154;2023-01-29T01:26:20;19.90;;;6.10;;
2023;SDS011;1016;48.770;9.154;2023-01-29T01:28:46;20.73;;;6.40;;
2023;SDS011;1016;48.770;9.154;2023-01-29T01:31:11;20.63;;;5.43;;
2023;SDS011;1016;48.770;9.154;2023-01-29T01:33:38;20.40;;;5.63;;
2023;SDS011;1016;48.770;9.154;2023-01-29T01:36:04;19.87;;;5.33;;
2023;SDS011;1016;48.770;9.154;2023-01-29T01:38:33;25.23;;;5.90;;
2023;SDS011;1016;48.770;9.154;2023-01-29T01:41:09;19.93;;;5.90;;
2023;SDS011;1016;48.770;9.154;2023-01-29T01:43:49;22.40;;;6.13;;
2023;SDS011;1016;48.770;9.154;2023-01-29T01:46:30;20.27;;;6.20;;
2023;SDS011;1016;48.770;9.154;2023-01-29T01:48:59;20.50;;;6.00;;
2023;SDS011;1016;48.770;9.154;2023-01-29T01:51:27;19.67;;;5.77;;
2023;SDS011;1016;48.770;9.154;2023-01-29T01:54:02;22.63;;;6.03;;
2023;SDS011;1016;48.770;9.154;2023-01-29T01:56:32;20.60;;;5.40;;
2023;SDS011;1016;48.770;9.154;2023-01-29T01:59:06;20.63;;;5.90;;
2023;SDS011;1016;48.770;9.154;2023-01-29T02:01:35;20.70;;;5.63;;
2023;SDS011;1016;48.770;9.154;2023-01-29T02:04:06;19.93;;;5.07;;
2023;SDS011;1016;48.770;9.154;2023-01-29T02:06:53;20.00;;;5.37;;
2023;SDS011;1016;48.770;9.154;2023-01-29T02:09:43;20.30;;;5.07;;
2023;SDS011;1016;48.770;9.154;2023-01-29T02:12:16;19.50;;;5.20;;
2023;SDS011;1016;48.770;9.154;2023-01-29T02:14:43;20.67;;;5.30;;
2023;SDS011;1016;48.770;9.154;2023-01-29T02:17:10;20.80;;;5.07;;
2023;SDS011;1016;48.770;9.154;2023-01-29T02:19:52;20.00;;;5.23;;
2023;SDS011;1016;48.770;9.154;2023-01-29T02:25:38;19.23;;;5.00;;
2023;SDS011;1016;48.770;9.154;2023-01-29T02:28:24;20.07;;;5.27;;
2023;SDS011;1016;48.770;9.154;2023-01-29T02:34:13;21.57;;;5.00;;
2023;SDS011;1016;48.770;9.154;2023-01-29T02:37:08;19.23;;;4.93;;
2023;SDS011;1016;48.770;9.154;2023-01-29T02:39:39;20.33;;;5.00;;
2023;SDS011;1016;48.770;9.154;2023-01-29T02:47:35;24.07;;;5.40;;
2023;SDS011;1016;48.770;9.154;2023-01-29T02:52:40;20.40;;;4.90;;
2023;SDS011;1016;48.770;9.154;2023-01-29T02:58:04;20.70;;;4.87;;
2023;SDS011;1016;48.770;9.154;2023-01-29T03:00:45;18.93;;;4.50;;
2023;SDS011;1016;48.770;9.154;2023-01-29T03:05:50;20.43;;;5.07;;
2023;SDS011;1016;48.770;9.154;2023-01-29T03:08:34;19.33;;;5.13;;
2023;SDS011;1016;48.770;9.154;2023-01-29T03:11:12;19.50;;;4.90;;
2023;SDS011;1016;48.770;9.154;2023-01-29T03:13:56;19.97;;;5.10;;
2023;SDS011;1016;48.770;9.154;2023-01-29T03:16:34;19.67;;;4.93;;
2023;SDS011;1016;48.770;9.154;2023-01-29T03:21:39;19.83;;;5.20;;
2023;SDS011;1016;48.770;9.154;2023-01-29T03:24:40;22.03;;;5.10;;
2023;SDS011;1016;48.770;9.154;2023-01-29T03:27:30;19.87;;;4.70;;
2023;SDS011;1016;48.770;9.154;2023-01-29T03:30:19;20.30;;;4.73;;
2023;SDS011;1016;48.770;9.154;2023-01-29T03:33:05;20.43;;;4.77;;
2023;SDS011;1016;48.770;9.154;2023-01-29T03:35:35;19.40;;;4.63;;
2023;SDS011;1016;48.770;9.154;2023-01-29T03:38:06;21.03;;;5.00;;
2023;SDS011;1016;48.770;9.154;2023-01-29T03:40:51;22.77;;;5.10;;
2023;SDS011;1016;48.770;9.154;2023-01-29T03:43:30;20.57;;;5.40;;
2023;SDS011;1016;48.770;9.154;2023-01-29T03:46:17;19.33;;;4.43;;
2023;SDS011;1016;48.770;9.154;2023-01-29T03:48:57;20.70;;;5.50;;
2023;SDS011;1016;48.770;9.154;2023-01-29T03:51:34;21.90;;;5.60;;
2023;SDS011;1016;48.770;9.154;2023-01-29T03:57:35;21.03;;;5.17;;
2023;SDS011;1016;48.770;9.154;2023-01-29T04:05:42;22.80;;;5.10;;
2023;SDS011;1016;48.770;9.154;2023-01-29T04:08:13;22.90;;;5.47;;
2023;SDS011;1016;48.770;9.154;2023-01-29T04:10:44;19.30;;;4.93;;
2023;SDS011;1016;48.770;9.154;2023-01-29T04:13:13;20.30;;;5.60;;
2023;SDS011;1016;48.770;9.154;2023-01-29T04:15:45;21.20;;;5.40;;
2023;SDS011;1016;48.770;9.154;2023-01-29T04:18:14;23.67;;;5.77;;
2023;SDS011;1016;48.770;9.154;2023-01-29T04:20:40;20.90;;;5.60;;
2023;SDS011;1016;48.770;9.154;2023-01-29T04:23:06;19.73;;;5.40;;
2023;SDS011;1016;48.770;9.154;2023-01-29T04:25:44;20.67;;;5.17;;
2023;SDS011;1016;48.770;9.154;2023-01-29T04:30:53;21.90;;;5.50;;
2023;SDS011;1016;48.770;9.154;2023-01-29T04:33:33;20.60;;;4.90;;
2023;SDS011;1016;48.770;9.154;2023-01-29T04:41:41;22.70;;;5.50;;
2023;SDS011;1016;48.770;9.154;2023-01-29T04:44:17;20.27;;;5.27;;
2023;SDS011;1016;48.770;9.154;2023-01-29T04:46:51;21.43;;;5.50;;
2023;SDS011;1016;48.770;9.154;2023-01-29T05:00:16;19.73;;;4.90;;
2023;SDS011;1016;48.770;9.154;2023-01-29T05:02:47;20.70;;;5.37;;
2023;SDS011;1016;48.770;9.154;2023-01-29T05:05:13;20.17;;;5.23;;
2023;SDS011;1016;48.770;9.154;2023-01-29T05:07:41;23.67;;;5.80;;
2023;SDS011;1016;48.770;9.154;2023-01-29T05:10:08;21.80;;;5.90;;
2023;SDS011;1016;48.770;9.154;2023-01-29T05:12:35;20.73;;;5.90;;
2023;SDS011;1016;48.770;9.154;2023-01-29T05:15:02;20.70;;;5.90;;
2023;SDS011;1016;48.770;9.154;2023-01-29T05:17:32;20.57;;;5.77;;
2023;SDS011;1016;48.770;9.154;2023-01-29T05:19:58;21.00;;;5.40;;
2023;SDS011;1016;48.770;9.154;2023-01-29T05:22:24;21.13;;;5.10;;
2023;SDS011;1016;48.770;9.154;2023-01-29T05:24:50;21.47;;;5.67;;
2023;SDS011;1016;48.770;9.154;2023-01-29T05:27:18;20.80;;;5.53;;
2023;SDS011;1016;48.770;9.154;2023-01-29T05:30:05;20.67;;;5.20;;
2023;SDS011;1016;48.770;9.154;2023-01-29T05:32:31;21.03;;;5.57;;
2023;SDS011;1016;48.770;9.154;2023-01-29T05:34:57;20.60;;;5.33;;
2023;SDS011;1016;48.770;9.154;2023-01-29T05:37:22;19.13;;;5.00;;
2023;SDS011;1016;48.770;9.154;2023-01-29T05:39:47;20.87;;;5.20;;
2023;SDS011;1016;48.770;9.154;2023-01-29T05:42:13;20.33;;;5.00;;
2023;SDS011;1016;48.770;9.154;2023-01-29T05:44:38;20.73;;;5.60;;
2023;SDS011;1016;48.770;9.154;2023-01-29T05:47:04;20.33;;;5.63;;
2023;SDS011;1016;48.770;9.154;2023-01-29T05:49:30;21.20;;;5.00;;
2023;SDS011;1016;48.770;9.154;2023-01-29T05:51:55;18.87;;;4.80;;
2023;SDS011;1016;48.770;9.154;2023-01-29T05:54:21;20.30;;;5.30;;
2023;SDS011;1016;48.770;9.154;2023-01-29T05:56:46;19.97;;;5.20;;
2023;SDS011;1016;48.770;9.154;2023-01-29T05:59:12;21.10;;;5.27;;
2023;SDS011;1016;48.770;9.154;2023-01-29T06:01:39;19.03;;;4.40;;
2023;SDS011;1016;48.770;9.154;2023-01-29T06:04:05;20.23;;;5.27;;
2023;SDS011;1016;48.770;9.154;2023-01-29T06:06:30;20.60;;;5.27;;
2023;SDS011;1016;48.770;9.154;2023-01-29T06:08:56;20.13;;;5.23;;
2023;SDS011;1016;48.770;9.154;2023-01-29T06:11:21;20.37;;;4.90;;
2023;SDS011;1016;48.770;9.154;2023-01-29T06:13:47;19.90;;;5.43;;
2023;SDS011;1016;48.770;9.154;2023-01-29T06:16:13;21.20;;;5.20;;
2023;SDS011;1016;48.770;9.154;2023-01-29T06:18:39;19.63;;;5.20;;
2023;SDS011;1016;48.770;9.154;2023-01-29T06:21:06;21.33;;;5.40;;
2023;SDS011;1016;48.770;9.154;2023-01-29T06:23:33;20.73;;;5.20;;
2023;SDS011;1016;48.770;9.154;2023-01-29T06:26:02;21.33;;;5.57;;
2023;SDS011;1016;48.770;9.154;2023-01-29T06:28:30;19.83;;;5.30;;
2023;SDS011;1016;48.770;9.154;2023-01-29T06:30:56;20.10;;;4.60;;
2023;SDS011;1016;48.770;9.154;2023-01-29T06:33:23;20.30;;;5.27;;
2023;SDS011;1016;48.770;9.154;2023-01-29T06:36:00;20.90;;;5.57;;
2023;SDS011;1016;48.770;9.154;2023-01-29T06:38:27;22.00;;;5.40;;
2023;SDS011;1016;48.770;9.154;2023-01-29T06:40:53;20.70;;;5.47;;
2023;SDS011;1016;48.770;9.154;2023-01-29T06:43:19;24.60;;;5.40;;
2023;SDS011;1016;48.770;9.154;2023-01-29T06:45:46;20.30;;;5.20;;
2023;SDS011;1016;48.770;9.154;2023-01-29T06:48:16;20.77;;;5.37;;
2023;SDS011;1016;48.770;9.154;2023-01-29T06:50:42;20.80;;;5.60;;
2023;SDS011;1016;48.770;9.154;2023-01-29T06:53:08;22.00;;;5.30;;
2023;SDS011;1016;48.770;9.154;2023-01-29T06:55:33;20.40;;;4.80;;
2023;SDS011;1016;48.770;9.154;2023-01-29T06:57:59;22.30;;;5.87;;
2023;SDS011;1016;48.770;9.154;2023-01-29T07:00:32;20.50;;;5.17;;
2023;SDS011;1016;48.770;9.154;2023-01-29T07:02:58;21.47;;;5.20;;
2023;SDS011;1016;48.770;9.154;2023-01-29T07:05:23;20.30;;;5.77;;
2023;SDS011;1016;48.770;9.154;2023-01-29T07:07:49;19.77;;;5.33;;
2023;SDS011;1016;48.770;9.154;2023-01-29T07:10:14;20.97;;;5.53;;
2023;SDS011;1016;48.770;9.154;2023-01-29T07:12:40;20.50;;;5.27;;
2023;SDS011;1016;48.770;9.154;2023-01-29T07:15:05;21.87;;;6.10;;
2023;SDS011;1016;48.770;9.154;2023-01-29T07:17:31;21.43;;;5.80;;
2023;SDS011;1016;48.770;9.154;2023-01-29T07:19:57;20.53;;;5.77;;
2023;SDS011;1016;48.770;9.154;2023-01-29T07:22:22;19.77;;;5.50;;
2023;SDS011;1016;48.770;9.154;2023-01-29T07:24:48;21.00;;;5.70;;
2023;SDS011;1016;48.770;9.154;2023-01-29T07:27:14;21.30;;;6.47;;
2023;SDS011;1016;48.770;9.154;2023-01-29T07:29:39;21.67;;;5.70;;
2023;SDS011;1016;48.770;9.154;2023-01-29T07:32:05;22.27;;;5.73;;
2023;SDS011;1016;48.770;9.154;2023-01-29T07:34:31;20.60;;;6.10;;
2023;SDS011;1016;48.770;9.154;2023-01-29T07:36:57;24.47;;;6.53;;
2023;SDS011;1016;48.770;9.154;2023-01-29T07:39:22;22.97;;;5.97;;
2023;SDS011;1016;48.770;9.154;2023-01-29T07:41:48;22.60;;;6.60;;
2023;SDS011;1016;48.770;9.154;2023-01-29T07:44:13;22.60;;;6.73;;
2023;SDS011;1016;48.770;9.154;2023-01-29T07:46:39;20.97;;;5.80;;
2023;SDS011;1016;48.770;9.154;2023-01-29T07:49:04;25.97;;;6.23;;
2023;SDS011;1016;48.770;9.154;2023-01-29T07:51:30;20.87;;;6.07;;
2023;SDS011;1016;48.770;9.154;2023-01-29T07:53:55;22.93;;;5.93;;
2023;SDS011;1016;48.770;9.154;2023-01-29T07:56:21;20.67;;;5.50;;
2023;SDS011;1016;48.770;9.154;2023-01-29T07:58:46;22.83;;;5.87;;
2023;SDS011;1016;48.770;9.154;2023-01-29T08:01:12;23.50;;;6.10;;
2023;SDS011;1016;48.770;9.154;2023-01-29T08:03:37;22.23;;;6.50;;
2023;SDS011;1016;48.770;9.154;2023-01-29T08:06:03;23.43;;;6.60;;
2023;SDS011;1016;48.770;9.154;2023-01-29T08:08:29;22.10;;;6.27;;
2023;SDS011;1016;48.770;9.154;2023-01-29T08:10:54;21.23;;;6.23;;
2023;SDS011;1016;48.770;9.154;2023-01-29T08:13:20;20.50;;;5.70;;
2023;SDS011;1016;48.770;9.154;2023-01-29T08:15:46;25.17;;;7.07;;
2023;SDS011;1016;48.770;9.154;2023-01-29T08:18:12;22.87;;;6.97;;
2023;SDS011;1016;48.770;9.154;2023-01-29T08:20:38;20.80;;;6.17;;
2023;SDS011;1016;48.770;9.154;2023-01-29T08:23:09;22.30;;;7.10;;
2023;SDS011;1016;48.770;9.154;2023-01-29T08:25:37;21.97;;;5.80;;
2023;SDS011;1016;48.770;9.154;2023-01-29T08:28:03;20.90;;;5.70;;
2023;SDS011;1016;48.770;9.154;2023-01-29T08:30:29;22.37;;;7.00;;
2023;SDS011;1016;48.770;9.154;2023-01-29T08:32:56;21.60;;;6.60;;
2023;SDS011;1016;48.770;9.154;2023-01-29T08:35:22;21.30;;;6.37;;
2023;SDS011;1016;48.770;9.154;2023-01-29T08:37:57;21.40;;;6.30;;
2023;SDS011;1016;48.770;9.154;2023-01-29T08:40:25;20.97;;;6.30;;
2023;SDS011;1016;48.770;9.154;2023-01-29T08:42:58;24.30;;;6.30;;
2023;SDS011;1016;48.770;9.154;2023-01-29T08:45:24;21.70;;;6.40;;
2023;SDS011;1016;48.770;9.154;2023-01-29T08:47:50;20.83;;;6.40;;
2023;SDS011;1016;48.770;9.154;2023-01-29T08:50:16;21.33;;;6.93;;
2023;SDS011;1016;48.770;9.154;2023-01-29T08:52:42;22.27;;;6.40;;
2023;SDS011;1016;48.770;9.154;2023-01-29T08:55:08;22.57;;;7.63;;
2023;SDS011;1016;48.770;9.154;2023-01-29T08:57:35;22.80;;;6.80;;
2023;SDS011;1016;48.770;9.154;2023-01-29T09:00:01;22.23;;;7.07;;
2023;SDS011;1016;48.770;9.154;2023-01-29T09:02:27;22.13;;;7.20;;
2023;SDS011;1016;48.770;9.154;2023-01-29T09:04:53;20.97;;;6.90;;
2023;SDS011;1016;48.770;9.154;2023-01-29T09:07:18;25.93;;;7.23;;
2023;SDS011;1016;48.770;9.154;2023-01-29T09:09:45;21.37;;;6.43;;
2023;SDS011;1016;48.770;9.154;2023-01-29T09:12:11;22.73;;;7.70;;
2023;SDS011;1016;48.770;9.154;2023-01-29T09:14:36;21.27;;;6.60;;
2023;SDS011;1016;48.770;9.154;2023-01-29T09:17:02;23.83;;;6.97;;
2023;SDS011;1016;48.770;9.154;2023-01-29T09:19:27;20.97;;;6.17;;
2023;SDS011;1016;48.770;9.154;2023-01-29T09:21:53;22.07;;;6.10;;
2023;SDS011;1016;48.770;9.154;2023-01-29T09:24:18;21.80;;;6.70;;
2023;SDS011;1016;48.770;9.154;2023-01-29T09:26:44;21.60;;;6.00;;
2023;SDS011;1016;48.770;9.154;2023-01-29T09:29:09;20.87;;;6.60;;
2023;SDS011;1016;48.770;9.154;2023-01-29T09:31:35;25.47;;;7.20;;
2023;SDS011;1016;48.770;9.154;2023-01-29T09:34:00;20.77;;;6.70;;
2023;SDS011;1016;48.770;9.154;2023-01-29T09:36:26;20.50;;;5.90;;
2023;SDS011;1016;48.770;9.154;2023-01-29T09:38:51;22.73;;;6.57;;
2023;SDS011;1016;48.770;9.154;2023-01-29T09:41:24;20.63;;;6.40;;
2023;SDS011;1016;48.770;9.154;2023-01-29T09:44:02;22.00;;;7.17;;
2023;SDS011;1016;48.770;9.154;2023-01-29T09:46:42;23.27;;;7.30;;
2023;SDS011;1016;48.770;9.154;2023-01-29T09:49:14;21.17;;;6.13;;
2023;SDS011;1016;48.770;9.154;2023-01-29T09:51:45;22.07;;;6.43;;
2023;SDS011;1016;48.770;9.154;2023-01-29T09:54:32;21.83;;;7.20;;
2023;SDS011;1016;48.770;9.154;2023-01-29T09:57:01;21.47;;;7.07;;
2023;SDS011;1016;48.770;9.154;2023-01-29T09:59:26;22.43;;;6.30;;
2023;SDS011;1016;48.770;9.154;2023-01-29T10:02:08;21.27;;;6.40;;
2023;SDS011;1016;48.770;9.154;2023-01-29T10:05:20;23.37;;;7.77;;
2023;SDS011;1016;48.770;9.154;2023-01-29T10:10:58;22.90;;;7.73;;
2023;SDS011;1016;48.770;9.154;2023-01-29T10:13:39;23.47;;;7.87;;
2023;SDS011;1016;48.770;9.154;2023-01-29T10:16:17;23.30;;;6.90;;
2023;SDS011;1016;48.770;9.154;2023-01-29T10:21:59;21.97;;;7.57;;
2023;SDS011;1016;48.770;9.154;2023-01-29T10:24:36;23.77;;;8.40;;
2023;SDS011;1016;48.770;9.154;2023-01-29T10:27:12;22.20;;;7.37;;
2023;SDS011;1016;48.770;9.154;2023-01-29T10:29:40;21.87;;;7.77;;
2023;SDS011;1016;48.770;9.154;2023-01-29T10:32:07;22.60;;;8.40;;
2023;SDS011;1016;48.770;9.154;2023-01-29T10:34:40;22.27;;;8.23;;
2023;SDS011;1016;48.770;9.154;2023-01-29T10:37:13;21.60;;;7.47;;
2023;SDS011;1016;48.770;9.154;2023-01-29T10:39:47;22.03;;;7.87;;
2023;SDS011;1016;48.770;9.154;2023-01-29T10:42:17;24.10;;;8.30;;
2023;SDS011;1016;48.770;9.154;2023-01-29T10:45:08;24.07;;;8.37;;
2023;SDS011;1016;48.770;9.154;2023-01-29T10:50:24;21.63;;;7.93;;
2023;SDS011;1016;48.770;9.154;2023-01-29T10:58:25;23.40;;;7.63;;
2023;SDS011;1016;48.770;9.154;2023-01-29T11:01:14;24.30;;;8.20;;
2023;SDS011;1016;48.770;9.154;2023-01-29T11:03:40;23.23;;;8.33;;
2023;SDS011;1016;48.770;9.154;2023-01-29T11:11:32;22.63;;;7.83;;
2023;SDS011;1016;48.770;9.154;2023-01-29T11:14:04;22.37;;;7.70;;
2023;SDS011;1016;48.770;9.154;2023-01-29T11:16:41;22.30;;;7.73;;
2023;SDS011;1016;48.770;9.154;2023-01-29T11:19:11;23.10;;;7.93;;
2023;SDS011;1016;48.770;9.154;2023-01-29T11:21:56;21.90;;;7.63;;
2023;SDS011;1016;48.770;9.154;2023-01-29T11:24:23;21.70;;;7.10;;
2023;SDS011;1016;48.770;9.154;2023-01-29T11:26:50;25.90;;;8.30;;
2023;SDS011;1016;48.770;9.154;2023-01-29T11:29:27;21.40;;;7.70;;
2023;SDS011;1016;48.770;9.154;2023-01-29T11:31:56;21.57;;;7.67;;
2023;SDS011;1016;48.770;9.154;2023-01-29T11:34:24;22.37;;;7.60;;
2023;SDS011;1016;48.770;9.154;2023-01-29T11:39:25;22.53;;;7.73;;
2023;SDS011;1016;48.770;9.154;2023-01-29T11:44:30;23.80;;;8.70;;
2023;SDS011;1016;48.770;9.154;2023-01-29T11:49:46;22.80;;;8.03;;
2023;SDS011;1016;48.770;9.154;2023-01-29T11:52:20;23.40;;;8.37;;
2023;SDS011;1016;48.770;9.154;2023-01-29T11:59:50;22.23;;;7.63;;
2023;SDS011;1016;48.770;9.154;2023-01-29T12:02:19;22.60;;;7.50;;
2023;SDS011;1016;48.770;9.154;2023-01-29T12:05:13;22.57;;;7.50;;
2023;SDS011;1016;48.770;9.154;2023-01-29T12:07:41;21.47;;;7.30;;
2023;SDS011;1016;48.770;9.154;2023-01-29T12:15:45;21.87;;;6.90;;
2023;SDS011;1016;48.770;9.154;2023-01-29T12:18:29;22.27;;;7.67;;
2023;SDS011;1016;48.770;9.154;2023-01-29T12:21:03;22.23;;;7.93;;
2023;SDS011;1016;48.770;9.154;2023-01-29T12:29:11;23.37;;;8.50;;
2023;SDS011;1016;48.770;9.154;2023-01-29T12:32:31;23.00;;;8.57;;
2023;SDS011;1016;48.770;9.154;2023-01-29T12:35:23;22.40;;;8.13;;
2023;SDS011;1016;48.770;9.154;2023-01-29T12:38:09;25.30;;;8.93;;
2023;SDS011;1016;48.770;9.154;2023-01-29T12:40:51;23.93;;;8.87;;
2023;SDS011;1016;48.770;9.154;2023-01-29T12:43:29;24.97;;;8.97;;
2023;SDS011;1016;48.770;9.154;2023-01-29T12:45:59;27.57;;;8.70;;
2023;SDS011;1016;48.770;9.154;2023-01-29T12:48:30;24.03;;;9.13;;
2023;SDS011;1016;48.770;9.154;2023-01-29T12:51:02;23.73;;;8.63;;
2023;SDS011;1016;48.770;9.154;2023-01-29T12:56:24;25.10;;;9.20;;
2023;SDS011;1016;48.770;9.154;2023-01-29T12:58:58;23.60;;;8.90;;
2023;SDS011;1016;48.770;9.154;2023-01-29T13:01:30;23.50;;;8.40;;
2023;SDS011;1016;48.770;9.154;2023-01-29T13:04:02;22.97;;;8.60;;
2023;SDS011;1016;48.770;9.154;2023-01-29T13:06:52;24.40;;;8.10;;
2023;SDS011;1016;48.770;9.154;2023-01-29T13:09:24;23.00;;;8.23;;
2023;SDS011;1016;48.770;9.154;2023-01-29T13:11:58;24.07;;;8.20;;
2023;SDS011;1016;48.770;9.154;2023-01-29T13:17:21;23.50;;;8.53;;
2023;SDS011;1016;48.770;9.154;2023-01-29T13:19:51;24.57;;;8.63;;
2023;SDS011;1016;48.770;9.154;2023-01-29T13:22:31;23.90;;;8.57;;
2023;SDS011;1016;48.770;9.154;2023-01-29T13:25:00;26.97;;;9.13;;
2023;SDS011;1016;48.770;9.154;2023-01-29T13:27:28;25.27;;;8.90;;
2023;SDS011;1016;48.770;9.154;2023-01-29T13:29:55;24.30;;;9.43;;
2023;SDS011;1016;48.770;9.154;2023-01-29T13:32:23;25.37;;;9.60;;
2023;SDS011;1016;48.770;9.154;2023-01-29T13:34:51;23.57;;;9.00;;
2023;SDS011;1016;48.770;9.154;2023-01-29T13:37:36;34.03;;;14.13;;
2023;SDS011;1016;48.770;9.154;2023-01-29T13:40:17;24.90;;;9.83;;
2023;SDS011;1016;48.770;9.154;2023-01-29T13:42:54;24.10;;;9.47;;
2023;SDS011;1016;48.770;9.154;2023-01-29T13:45:25;24.27;;;9.10;;
2023;SDS011;1016;48.770;9.154;2023-01-29T13:48:17;26.00;;;8.80;;
2023;SDS011;1016;48.770;9.154;2023-01-29T13:50:45;23.30;;;8.77;;
2023;SDS011;1016;48.770;9.154;2023-01-29T13:53:21;24.90;;;9.23;;
2023;SDS011;1016;48.770;9.154;2023-01-29T13:55:53;24.70;;;9.00;;
2023;SDS011;1016;48.770;9.154;2023-01-29T14:00:57;23.87;;;9.03;;
2023;SDS011;1016;48.770;9.154;2023-01-29T14:13:41;24.63;;;8.90;;
2023;SDS011;1016;48.770;9.154;2023-01-29T14:18:33;27.57;;;9.20;;
2023;SDS011;1016;48.770;9.154;2023-01-29T14:23:49;25.37;;;9.10;;
2023;SDS011;1016;48.770;9.154;2023-01-29T14:26:30;22.53;;;8.37;;
2023;SDS011;1016;48.770;9.154;2023-01-29T14:31:37;22.83;;;8.33;;
2023;SDS011;1016;48.770;9.154;2023-01-29T14:36:40;24.17;;;9.37;;
2023;SDS011;1016;48.770;9.154;2023-01-29T14:41:55;24.40;;;9.63;;
2023;SDS011;1016;48.770;9.154;2023-01-29T14:49:48;23.50;;;8.53;;
2023;SDS011;1016;48.770;9.154;2023-01-29T14:52:20;25.10;;;8.77;;
2023;SDS011;1016;48.770;9.154;2023-01-29T14:54:59;23.37;;;8.63;;
2023;SDS011;1016;48.770;9.154;2023-01-29T14:57:29;22.90;;;8.33;;
2023;SDS011;1016;48.770;9.154;2023-01-29T14:59:59;25.63;;;9.30;;
2023;SDS011;1016;48.770;9.154;2023-01-29T15:02:40;25.00;;;9.50;;
2023;SDS011;1016;48.770;9.154;2023-01-29T15:05:11;24.60;;;8.80;;
2023;SDS011;1016;48.770;9.154;2023-01-29T15:07:43;24.00;;;8.97;;
2023;SDS011;1016;48.770;9.154;2023-01-29T15:10:25;24.47;;;9.10;;
2023;SDS011;1016;48.770;9.154;2023-01-29T15:13:07;24.60;;;9.10;;
2023;SDS011;1016;48.770;9.154;2023-01-29T15:15:55;25.97;;;8.30;;
2023;SDS011;1016;48.770;9.154;2023-01-29T15:21:08;25.30;;;9.43;;
2023;SDS011;1016;48.770;9.154;2023-01-29T15:23:36;24.33;;;9.50;;
2023;SDS011;1016;48.770;9.154;2023-01-29T15:26:04;24.53;;;9.27;;
2023;SDS011;1016;48.770;9.154;2023-01-29T15:28:31;24.93;;;9.10;;
2023;SDS011;1016;48.770;9.154;2023-01-29T15:30:59;23.70;;;9.07;;
2023;SDS011;1016;48.770;9.154;2023-01-29T15:33:28;24.13;;;8.83;;
2023;SDS011;1016;48.770;9.154;2023-01-29T15:35:58;26.93;;;9.47;;
2023;SDS011;1016;48.770;9.154;2023-01-29T15:38:26;24.47;;;8.83;;
2023;SDS011;1016;48.770;9.154;2023-01-29T15:40:54;29.13;;;9.00;;
2023;SDS011;1016;48.770;9.154;2023-01-29T15:45:48;23.90;;;9.03;;
2023;SDS011;1016;48.770;9.154;2023-01-29T15:48:17;26.30;;;9.80;;
2023;SDS011;1016;48.770;9.154;2023-01-29T15:50:46;23.57;;;8.87;;
2023;SDS011;1016;48.770;9.154;2023-01-29T15:53:20;23.90;;;9.70;;
2023;SDS011;1016;48.770;9.154;2023-01-29T15:55:53;27.57;;;9.90;;
2023;SDS011;1016;48.770;9.154;2023-01-29T15:58:23;26.90;;;9.60;;
2023;SDS011;1016;48.770;9.154;2023-01-29T16:00:54;24.63;;;9.10;;
2023;SDS011;1016;48.770;9.154;2023-01-29T16:03:22;25.20;;;9.57;;
2023;SDS011;1016;48.770;9.154;2023-01-29T16:05:49;24.10;;;9.20;;
2023;SDS011;1016;48.770;9.154;2023-01-29T16:08:16;25.13;;;9.03;;
2023;SDS011;1016;48.770;9.154;2023-01-29T16:10:44;26.57;;;9.17;;
2023;SDS011;1016;48.770;9.154;2023-01-29T16:13:16;27.50;;;11.07;;
2023;SDS011;1016;48.770;9.154;2023-01-29T16:15:53;27.03;;;9.60;;
2023;SDS011;1016;48.770;9.154;2023-01-29T16:18:49;30.70;;;9.20;;
2023;SDS011;1016;48.770;9.154;2023-01-29T16:24:11;30.90;;;9.60;;
2023;SDS011;1016;48.770;9.154;2023-01-29T16:26:43;27.63;;;8.83;;
2023;SDS011;1016;48.770;9.154;2023-01-29T16:29:12;24.17;;;8.50;;
2023;SDS011;1016;48.770;9.154;2023-01-29T16:31:42;26.00;;;9.80;;
2023;SDS011;1016;48.770;9.154;2023-01-29T16:34:25;25.47;;;9.63;;
2023;SDS011;1016;48.770;9.154;2023-01-29T16:36:57;25.57;;;9.03;;
2023;SDS011;1016;48.770;9.154;2023-01-29T16:39:25;24.93;;;9.10;;
2023;SDS011;1016;48.770;9.154;2023-01-29T16:44:54;24.47;;;9.43;;
2023;SDS011;1016;48.770;9.154;2023-01-29T16:47:34;24.93;;;9.50;;
2023;SDS011;1016;48.770;9.154;2023-01-29T16:53:10;26.97;;;9.97;;
2023;SDS011;1016;48.770;9.154;2023-01-29T16:55:38;25.07;;;9.03;;
2023;SDS011;1016;48.770;9.154;2023-01-29T16:58:11;25.07;;;9.30;;
2023;SDS011;1016;48.770;9.154;2023-01-29T17:00:42;25.57;;;9.43;;
2023;SDS011;1016;48.770;9.154;2023-01-29T17:03:11;27.00;;;10.00;;
2023;SDS011;1016;48.770;9.154;2023-01-29T17:05:38;30.10;;;9.07;;
2023;SDS011;1016;48.770;9.154;2023-01-29T17:08:04;26.00;;;9.43;;
2023;SDS011;1016;48.770;9.154;2023-01-29T17:10:31;25.90;;;8.57;;
2023;SDS011;1016;48.770;9.154;2023-01-29T17:13:41;28.80;;;10.20;;
2023;SDS011;1016;48.770;9.154;2023-01-29T17:16:00;27.10;;;10.50;;
2023;SDS011;1016;48.770;9.154;2023-01-29T17:18:37;27.10;;;10.70;;
2023;SDS011;1016;48.770;9.154;2023-01-29T17:21:03;27.97;;;11.20;;
2023;SDS011;1016;48.770;9.154;2023-01-29T17:23:29;27.33;;;10.87;;
2023;SDS011;1016;48.770;9.154;2023-01-29T17:25:54;26.77;;;10.67;;
2023;SDS011;1016;48.770;9.154;2023-01-29T17:28:20;27.90;;;11.07;;
2023;SDS011;1016;48.770;9.154;2023-01-29T17:30:46;26.10;;;10.37;;
2023;SDS011;1016;48.770;9.154;2023-01-29T17:33:15;28.80;;;11.40;;
2023;SDS011;1016;48.770;9.154;2023-01-29T17:35:46;28.27;;;11.23;;
2023;SDS011;1016;48.770;9.154;2023-01-29T17:38:13;25.53;;;10.10;;
2023;SDS011;1016;48.770;9.154;2023-01-29T17:40:41;30.20;;;10.63;;
2023;SDS011;1016;48.770;9.154;2023-01-29T17:43:12;25.13;;;10.10;;
2023;SDS011;1016;48.770;9.154;2023-01-29T17:45:38;25.70;;;9.33;;
2023;SDS011;1016;48.770;9.154;2023-01-29T17:48:14;26.80;;;10.10;;
2023;SDS011;1016;48.770;9.154;2023-01-29T17:50:47;27.03;;;11.30;;